createdAt,value
2023-01-30T00:00:43.472Z,96676.00
2023-01-30T00:04:46.520Z,96686.00
2023-01-30T00:08:51.055Z,96669.00
2023-01-30T00:12:57.237Z,96675.00
2023-01-30T00:17:00.607Z,96653.00
2023-01-30T00:21:07.011Z,96644.00
2023-01-30T00:25:11.932Z,96655.00
2023-01-30T00:29:14.989Z,96649.00
2023-01-30T00:33:18.848Z,96645.00
2023-01-30T00:37:21.978Z,96630.00
2023-01-30T00:41:47.308Z,96622.00
2023-01-30T00:46:12.480Z,96616.00
2023-01-30T00:50:17.665Z,96611.00
2023-01-30T00:54:24.988Z,96608.00
2023-01-30T00:58:31.987Z,96589.00
2023-01-30T01:02:36.234Z,96588.00
2023-01-30T01:06:39.902Z,96580.00
2023-01-30T01:10:42.940Z,96573.00
2023-01-30T01:14:51.237Z,96579.00
2023-01-30T01:18:55.913Z,96569.00
2023-01-30T01:22:59.456Z,96578.00
2023-01-30T01:27:02.568Z,96577.00
2023-01-30T01:31:11.600Z,96583.00
2023-01-30T01:35:14.844Z,96595.00
2023-01-30T01:39:20.767Z,96604.00
2023-01-30T01:43:30.431Z,96619.00
2023-01-30T01:47:38.999Z,96628.00
2023-01-30T01:51:46.645Z,96643.00
2023-01-30T01:55:53.133Z,96623.00
2023-01-30T02:00:02.328Z,96616.00
2023-01-30T02:04:10.356Z,96599.00
2023-01-30T02:08:15.911Z,96586.00
2023-01-30T02:12:22.915Z,96599.00
2023-01-30T02:16:26.111Z,96606.00
2023-01-30T02:20:41.538Z,96601.00
2023-01-30T02:25:21.372Z,96596.00
2023-01-30T02:30:22.551Z,96583.00
2023-01-30T02:34:47.213Z,96567.00
2023-01-30T02:38:59.296Z,96560.00
2023-01-30T02:43:14.943Z,96558.00
2023-01-30T02:47:25.546Z,96561.00
2023-01-30T02:51:32.882Z,96551.00
2023-01-30T02:55:42.530Z,96548.00
2023-01-30T02:59:50.943Z,96551.00
2023-01-30T03:04:08.340Z,96539.00
2023-01-30T03:08:25.262Z,96527.00
2023-01-30T03:12:42.027Z,96494.00
2023-01-30T03:16:46.200Z,96495.00
2023-01-30T03:20:50.110Z,96439.00
2023-01-30T03:24:55.678Z,96430.00
2023-01-30T03:28:59.065Z,96494.00
2023-01-30T03:33:02.214Z,96496.00
2023-01-30T03:37:05.992Z,96485.00
2023-01-30T03:41:10.659Z,96505.00
2023-01-30T03:45:16.699Z,96511.00
2023-01-30T03:49:22.372Z,96488.00
2023-01-30T03:53:26.978Z,96454.00
2023-01-30T03:57:31.946Z,96452.00
2023-01-30T04:01:35.090Z,96430.00
2023-01-30T04:05:39.228Z,96410.00
2023-01-30T04:09:43.218Z,96388.00
2023-01-30T04:13:47.861Z,96381.00
2023-01-30T04:17:53.972Z,96384.00
2023-01-30T04:21:57.038Z,96400.00
2023-01-30T04:26:00.116Z,96391.00
2023-01-30T04:30:05.004Z,96380.00
2023-01-30T04:34:09.958Z,96394.00
2023-01-30T04:38:14.204Z,96380.00
2023-01-30T04:42:20.027Z,96379.00
2023-01-30T04:46:24.719Z,96382.00
2023-01-30T04:50:29.591Z,96377.00
2023-01-30T04:54:36.941Z,96376.00
2023-01-30T04:58:40.089Z,96385.00
2023-01-30T05:02:45.310Z,96373.00
2023-01-30T05:06:50.346Z,96383.00
2023-01-30T05:10:53.499Z,96379.00
2023-01-30T05:15:08.471Z,96384.00
2023-01-30T05:19:14.012Z,96387.00
2023-01-30T05:23:17.107Z,96377.00
2023-01-30T05:27:20.892Z,96380.00
2023-01-30T05:31:26.670Z,96402.00
2023-01-30T05:35:33.998Z,96397.00
2023-01-30T05:39:37.568Z,96401.00
2023-01-30T05:43:40.869Z,96399.00
2023-01-30T05:47:46.362Z,96395.00
2023-01-30T05:51:55.999Z,96374.00
2023-01-30T05:56:01.522Z,96363.00
2023-01-30T06:00:07.560Z,96356.00
2023-01-30T06:04:13.829Z,96363.00
2023-01-30T06:08:18.342Z,96359.00
2023-01-30T06:12:21.665Z,96356.00
2023-01-30T06:16:24.943Z,96338.00
2023-01-30T06:20:28.154Z,96324.00
2023-01-30T06:24:35.267Z,96337.00
2023-01-30T06:28:38.765Z,96330.00
2023-01-30T06:32:45.804Z,96328.00
2023-01-30T06:36:48.890Z,96322.00
2023-01-30T06:40:55.309Z,96330.00
2023-01-30T06:44:58.368Z,96332.00
2023-01-30T06:49:01.447Z,96331.00
2023-01-30T06:53:11.687Z,96321.00
2023-01-30T06:57:16.178Z,96338.00
2023-01-30T07:01:21.364Z,96331.00
2023-01-30T07:05:24.567Z,96327.00
2023-01-30T07:09:30.031Z,96331.00
2023-01-30T07:13:34.456Z,96331.00
2023-01-30T07:17:47.562Z,96341.00
2023-01-30T07:21:50.647Z,96322.00
2023-01-30T07:25:53.764Z,96318.00
2023-01-30T07:30:01.456Z,96312.00
2023-01-30T07:34:04.580Z,96301.00
2023-01-30T07:38:07.675Z,96316.00
2023-01-30T07:42:11.079Z,96310.00
2023-01-30T07:46:15.562Z,96313.00
2023-01-30T07:50:19.497Z,96309.00
2023-01-30T07:54:23.105Z,96302.00
2023-01-30T07:58:26.096Z,96303.00
2023-01-30T08:02:30.934Z,96317.00
2023-01-30T08:06:39.415Z,96308.00
2023-01-30T08:10:42.695Z,96311.00
2023-01-30T08:14:45.800Z,96311.00
2023-01-30T08:18:50.750Z,96305.00
2023-01-30T08:22:55.272Z,96308.00
2023-01-30T08:26:58.379Z,96295.00
2023-01-30T08:31:01.837Z,96298.00
2023-01-30T08:35:08.941Z,96282.00
2023-01-30T08:39:12.455Z,96277.00
2023-01-30T08:43:15.548Z,96270.00
2023-01-30T08:47:18.621Z,96266.00
2023-01-30T08:51:26.034Z,96272.00
2023-01-30T08:55:30.419Z,96260.00
2023-01-30T08:59:36.391Z,96260.00
2023-01-30T09:03:41.233Z,96267.00
2023-01-30T09:07:50.282Z,96262.00
2023-01-30T09:11:53.642Z,96245.00
2023-01-30T09:15:56.679Z,96245.00
2023-01-30T09:19:59.798Z,96244.00
2023-01-30T09:24:04.440Z,96243.00
2023-01-30T09:28:08.130Z,96238.00
2023-01-30T09:32:14.184Z,96239.00
2023-01-30T09:36:17.546Z,96245.00
2023-01-30T09:40:26.271Z,96241.00
2023-01-30T09:45:03.092Z,96238.00
2023-01-30T09:49:17.829Z,96231.00
2023-01-30T09:53:27.126Z,96230.00
2023-01-30T09:57:42.842Z,96216.00
2023-01-30T10:01:53.317Z,96219.00
2023-01-30T10:06:00.104Z,96191.00
2023-01-30T10:10:14.713Z,96195.00
2023-01-30T10:14:47.561Z,96191.00
2023-01-30T10:19:01.257Z,96185.00
2023-01-30T10:23:44.853Z,96186.00
2023-01-30T10:27:54.764Z,96190.00
2023-01-30T10:32:08.392Z,96183.00
2023-01-30T10:36:15.073Z,96174.00
2023-01-30T10:40:24.293Z,96162.00
2023-01-30T10:44:27.543Z,96162.00
2023-01-30T10:48:59.733Z,96151.00
2023-01-30T10:53:09.934Z,96148.00
2023-01-30T10:57:25.300Z,96138.00
2023-01-30T11:01:34.235Z,96130.00
2023-01-30T11:05:47.122Z,96147.00
2023-01-30T11:09:50.875Z,96147.00
2023-01-30T11:14:04.258Z,96136.00
2023-01-30T11:18:54.826Z,96141.00
2023-01-30T11:22:41.754Z,96138.00
2023-01-30T11:26:48.021Z,96127.00
2023-01-30T11:30:55.966Z,96125.00
2023-01-30T11:35:23.835Z,96112.00
2023-01-30T11:39:34.968Z,96120.00
2023-01-30T11:43:40.684Z,96135.00
2023-01-30T11:47:57.376Z,96130.00
2023-01-30T11:52:02.045Z,96129.00
2023-01-30T11:56:21.285Z,96121.00
2023-01-30T12:00:29.574Z,96117.00
2023-01-30T12:04:34.061Z,96118.00
2023-01-30T12:08:42.223Z,96115.00
2023-01-30T12:12:54.496Z,96098.00
2023-01-30T12:17:10.732Z,96090.00
2023-01-30T12:21:25.141Z,96097.00
2023-01-30T12:25:35.776Z,96091.00
2023-01-30T12:29:58.257Z,96099.00
2023-01-30T12:34:02.915Z,96096.00
2023-01-30T12:38:15.589Z,96085.00
2023-01-30T12:42:49.805Z,96093.00
2023-01-30T12:47:11.435Z,96094.00
2023-01-30T12:51:28.363Z,96101.00
2023-01-30T12:55:43.502Z,96098.00
2023-01-30T13:00:02.359Z,96091.00
2023-01-30T13:04:25.422Z,96112.00
2023-01-30T13:08:58.116Z,96116.00
2023-01-30T13:13:12.351Z,96127.00
2023-01-30T13:17:33.186Z,96125.00
2023-01-30T13:21:46.585Z,96123.00
2023-01-30T13:26:00.196Z,96141.00
2023-01-30T13:30:10.555Z,96132.00
2023-01-30T13:34:25.417Z,96130.00
2023-01-30T13:38:35.994Z,96131.00
2023-01-30T13:42:45.425Z,96118.00
2023-01-30T13:47:00.504Z,96108.00
2023-01-30T13:51:23.755Z,96108.00
2023-01-30T13:55:34.183Z,96118.00
2023-01-30T14:00:03.671Z,96135.00
2023-01-30T14:04:40.310Z,96129.00
2023-01-30T14:08:59.612Z,96132.00
2023-01-30T14:13:09.968Z,96127.00
2023-01-30T14:17:20.175Z,96127.00
2023-01-30T14:21:28.903Z,96142.00
2023-01-30T14:25:51.598Z,96127.00
2023-01-30T14:30:00.167Z,96113.00
2023-01-30T14:34:05.791Z,96133.00
2023-01-30T14:38:15.326Z,96135.00
2023-01-30T14:42:24.490Z,96124.00
2023-01-30T14:46:55.083Z,96148.00
2023-01-30T14:51:24.498Z,96159.00
2023-01-30T14:55:30.902Z,96184.00
2023-01-30T14:59:37.412Z,96183.00
2023-01-30T15:03:43.386Z,96186.00
2023-01-30T15:07:51.042Z,96196.00
2023-01-30T15:12:03.145Z,96206.00
2023-01-30T15:16:22.295Z,96219.00
2023-01-30T15:25:23.395Z,96217.00
2023-01-30T15:30:00.257Z,96228.00
2023-01-30T15:34:11.223Z,96220.00
2023-01-30T15:38:28.421Z,96213.00
2023-01-30T15:42:32.892Z,96219.00
2023-01-30T15:46:48.022Z,96234.00
2023-01-30T15:50:54.535Z,96248.00
2023-01-30T15:55:02.368Z,96258.00
2023-01-30T15:59:08.016Z,96252.00
2023-01-30T16:03:16.688Z,96276.00
2023-01-30T16:07:27.073Z,96285.00
2023-01-30T16:11:35.698Z,96293.00
2023-01-30T16:15:44.648Z,96289.00
2023-01-30T16:19:47.821Z,96291.00
2023-01-30T16:23:56.822Z,96294.00
2023-01-30T16:28:03.165Z,96287.00
2023-01-30T16:32:13.619Z,96299.00
2023-01-30T16:36:41.307Z,96295.00
2023-01-30T16:40:46.127Z,96303.00
2023-01-30T16:44:51.842Z,96302.00
2023-01-30T16:49:04.670Z,96329.00
2023-01-30T16:53:15.637Z,96338.00
2023-01-30T16:57:34.506Z,96328.00
2023-01-30T17:01:41.891Z,96335.00
2023-01-30T17:05:52.063Z,96344.00
2023-01-30T17:09:57.641Z,96345.00
2023-01-30T17:14:30.736Z,96346.00
2023-01-30T17:18:38.263Z,96337.00
2023-01-30T17:22:46.057Z,96339.00
2023-01-30T17:26:50.974Z,96341.00
2023-01-30T17:30:55.354Z,96357.00
2023-01-30T17:34:59.478Z,96358.00
2023-01-30T17:39:08.353Z,96376.00
2023-01-30T17:43:13.323Z,96387.00
2023-01-30T17:47:18.241Z,96381.00
2023-01-30T17:51:24.202Z,96387.00
2023-01-30T17:55:28.708Z,96398.00
2023-01-30T17:59:34.523Z,96404.00
2023-01-30T18:03:37.689Z,96415.00
2023-01-30T18:07:43.721Z,96423.00
2023-01-30T18:11:48.961Z,96404.00
2023-01-30T18:16:03.983Z,96412.00
2023-01-30T18:20:07.827Z,96406.00
2023-01-30T18:24:13.917Z,96417.00
2023-01-30T18:28:21.262Z,96416.00
2023-01-30T18:32:24.307Z,96433.00
2023-01-30T18:36:30.207Z,96439.00
2023-01-30T18:40:33.293Z,96446.00
2023-01-30T18:44:37.768Z,96453.00
2023-01-30T18:48:41.529Z,96449.00
2023-01-30T18:52:44.708Z,96463.00
2023-01-30T18:56:51.224Z,96456.00
2023-01-30T19:00:55.715Z,96468.00
2023-01-30T19:05:00.177Z,96473.00
2023-01-30T19:09:03.533Z,96485.00
2023-01-30T19:13:23.736Z,96474.00
2023-01-30T19:17:28.276Z,96478.00
2023-01-30T19:21:31.568Z,96475.00
2023-01-30T19:25:34.778Z,96514.00
2023-01-30T19:29:42.826Z,96494.00
2023-01-30T19:33:54.556Z,96505.00
2023-01-30T19:38:01.699Z,96506.00
2023-01-30T19:42:04.892Z,96508.00
2023-01-30T19:46:10.942Z,96515.00
2023-01-30T19:50:16.457Z,96519.00
2023-01-30T19:54:22.205Z,96532.00
2023-01-30T19:58:27.440Z,96539.00
2023-01-30T20:02:33.097Z,96534.00
2023-01-30T20:06:38.855Z,96546.00
2023-01-30T20:10:42.422Z,96545.00
2023-01-30T20:14:48.084Z,96543.00
2023-01-30T20:18:56.266Z,96551.00
2023-01-30T20:23:05.448Z,96565.00
2023-01-30T20:27:08.597Z,96554.00
2023-01-30T20:31:13.892Z,96562.00
2023-01-30T20:35:17.960Z,96572.00
2023-01-30T20:39:23.406Z,96564.00
2023-01-30T20:43:26.637Z,96574.00
2023-01-30T20:47:29.738Z,96576.00
2023-01-30T20:51:36.333Z,96576.00
2023-01-30T20:55:40.844Z,96565.00
2023-01-30T20:59:49.656Z,96565.00
2023-01-30T21:03:56.139Z,96566.00
2023-01-30T21:07:59.360Z,96567.00
2023-01-30T21:12:09.020Z,96575.00
2023-01-30T21:16:15.013Z,96576.00
2023-01-30T21:20:18.214Z,96583.00
2023-01-30T21:24:26.219Z,96584.00
2023-01-30T21:28:32.068Z,96581.00
2023-01-30T21:32:35.107Z,96592.00
2023-01-30T21:36:38.223Z,96581.00
2023-01-30T21:40:58.809Z,96590.00
2023-01-30T21:45:06.846Z,96598.00
2023-01-30T21:49:10.362Z,96593.00
2023-01-30T21:53:16.079Z,96604.00
2023-01-30T21:57:19.315Z,96617.00
2023-01-30T22:01:25.274Z,96614.00
2023-01-30T22:05:28.708Z,96608.00
2023-01-30T22:09:31.755Z,96611.00
2023-01-30T22:13:35.301Z,96624.00
2023-01-30T22:17:40.311Z,96617.00
2023-01-30T22:21:46.146Z,96611.00
2023-01-30T22:25:56.629Z,96612.00
2023-01-30T22:30:10.144Z,96605.00
2023-01-30T22:34:21.709Z,96615.00
2023-01-30T22:38:26.638Z,96624.00
2023-01-30T22:42:29.677Z,96636.00
2023-01-30T22:46:34.678Z,96630.00
2023-01-30T22:50:39.359Z,96624.00
2023-01-30T22:54:42.385Z,96628.00
2023-01-30T22:58:45.931Z,96649.00
2023-01-30T23:02:52.099Z,96629.00
2023-01-30T23:06:59.735Z,96632.00
2023-01-30T23:11:13.163Z,96646.00
2023-01-30T23:15:20.339Z,96634.00
2023-01-30T23:19:23.704Z,96633.00
2023-01-30T23:23:30.250Z,96633.00
2023-01-30T23:27:34.506Z,96630.00
2023-01-30T23:31:38.042Z,96630.00
2023-01-30T23:35:41.153Z,96648.00
2023-01-30T23:39:47.974Z,96637.00
2023-01-30T23:43:52.227Z,96641.00
2023-01-30T23:47:55.300Z,96648.00
2023-01-30T23:51:58.551Z,96642.00
2023-01-30T23:56:04.569Z,96643.00
